sensor_id;sensor_type;location;lat;lon;timestamp;noise_LAeq;noise_LA_min;noise_LA_max;noise_LA01;noise_LA95
78074;Laerm;67283;50.960;13.856;2023-04-03T00:00:48;38.62;36.46;43.66;;
78074;Laerm;67283;50.960;13.856;2023-04-03T00:03:17;50.79;36.54;68.36;;
78074;Laerm;67283;50.960;13.856;2023-04-03T00:05:45;38.28;36.32;39.84;;
78074;Laerm;67283;50.960;13.856;2023-04-03T00:08:13;38.29;36.50;41.62;;
78074;Laerm;67283;50.960;13.856;2023-04-03T00:10:44;38.16;36.17;39.72;;
78074;Laerm;67283;50.960;13.856;2023-04-03T00:13:12;38.19;36.49;42.24;;
78074;Laerm;67283;50.960;13.856;2023-04-03T00:15:41;38.23;36.45;40.15;;
78074;Laerm;67283;50.960;13.856;2023-04-03T00:18:10;38.18;36.19;40.05;;
78074;Laerm;67283;50.960;13.856;2023-04-03T00:20:38;38.26;36.46;40.02;;
78074;Laerm;67283;50.960;13.856;2023-04-03T00:23:06;39.29;36.39;51.61;;
78074;Laerm;67283;50.960;13.856;2023-04-03T00:25:34;50.88;36.47;68.22;;
78074;Laerm;67283;50.960;13.856;2023-04-03T00:28:05;38.29;36.51;40.05;;
78074;Laerm;67283;50.960;13.856;2023-04-03T00:30:33;38.26;36.48;39.88;;
78074;Laerm;67283;50.960;13.856;2023-04-03T00:33:01;38.25;36.62;40.01;;
78074;Laerm;67283;50.960;13.856;2023-04-03T00:35:29;38.08;36.05;42.02;;
78074;Laerm;67283;50.960;13.856;2023-04-03T00:37:58;38.23;36.56;39.95;;
78074;Laerm;67283;50.960;13.856;2023-04-03T00:40:26;38.61;36.86;44.12;;
78074;Laerm;67283;50.960;13.856;2023-04-03T00:42:55;51.91;36.14;69.34;;
78074;Laerm;67283;50.960;13.856;2023-04-03T00:45:31;38.30;36.40;50.10;;
78074;Laerm;67283;50.960;13.856;2023-04-03T00:48:00;38.32;36.39;49.34;;
78074;Laerm;67283;50.960;13.856;2023-04-03T00:50:30;38.14;36.49;49.06;;
78074;Laerm;67283;50.960;13.856;2023-04-03T00:53:00;38.67;36.43;65.13;;
78074;Laerm;67283;50.960;13.856;2023-04-03T00:55:28;38.16;36.29;40.13;;
78074;Laerm;67283;50.960;13.856;2023-04-03T00:57:57;38.37;36.45;40.07;;
78074;Laerm;67283;50.960;13.856;2023-04-03T01:00:25;51.60;36.71;68.14;;
78074;Laerm;67283;50.960;13.856;2023-04-03T01:02:56;38.06;36.20;40.14;;
78074;Laerm;67283;50.960;13.856;2023-04-03T01:05:25;38.04;36.39;39.57;;
78074;Laerm;67283;50.960;13.856;2023-04-03T01:07:53;38.01;36.15;41.31;;
78074;Laerm;67283;50.960;13.856;2023-04-03T01:10:21;38.10;36.33;44.55;;
78074;Laerm;67283;50.960;13.856;2023-04-03T01:12:51;38.10;36.33;44.55;;
78074;Laerm;67283;50.960;13.856;2023-04-03T01:15:20;37.98;36.05;40.50;;
78074;Laerm;67283;50.960;13.856;2023-04-03T01:17:49;37.99;36.00;46.30;;
78074;Laerm;67283;50.960;13.856;2023-04-03T01:23:06;38.10;36.32;39.81;;
78074;Laerm;67283;50.960;13.856;2023-04-03T01:25:40;48.49;35.90;67.87;;
78074;Laerm;67283;50.960;13.856;2023-04-03T01:28:09;38.11;36.31;39.88;;
78074;Laerm;67283;50.960;13.856;2023-04-03T01:30:39;38.16;36.39;50.64;;
78074;Laerm;67283;50.960;13.856;2023-04-03T01:33:11;38.22;36.45;40.14;;
78074;Laerm;67283;50.960;13.856;2023-04-03T01:35:39;38.19;36.25;51.00;;
78074;Laerm;67283;50.960;13.856;2023-04-03T01:38:07;38.08;35.94;45.02;;
78074;Laerm;67283;50.960;13.856;2023-04-03T01:40:36;38.13;36.29;40.44;;
78074;Laerm;67283;50.960;13.856;2023-04-03T01:43:05;38.18;36.43;40.38;;
78074;Laerm;67283;50.960;13.856;2023-04-03T01:45:33;38.95;36.11;47.47;;
78074;Laerm;67283;50.960;13.856;2023-04-03T01:48:01;39.06;36.26;47.07;;
78074;Laerm;67283;50.960;13.856;2023-04-03T01:50:32;38.28;36.43;45.08;;
78074;Laerm;67283;50.960;13.856;2023-04-03T01:53:00;38.09;36.03;39.81;;
78074;Laerm;67283;50.960;13.856;2023-04-03T01:55:28;56.87;36.57;73.12;;
78074;Laerm;67283;50.960;13.856;2023-04-03T01:57:56;38.02;36.39;39.78;;
78074;Laerm;67283;50.960;13.856;2023-04-03T02:00:24;38.07;36.25;43.60;;
78074;Laerm;67283;50.960;13.856;2023-04-03T02:02:52;38.14;36.35;39.95;;
78074;Laerm;67283;50.960;13.856;2023-04-03T02:05:21;38.11;35.98;39.75;;
78074;Laerm;67283;50.960;13.856;2023-04-03T02:07:52;38.27;36.52;40.32;;
78074;Laerm;67283;50.960;13.856;2023-04-03T02:10:21;56.39;36.27;76.11;;
78074;Laerm;67283;50.960;13.856;2023-04-03T02:12:49;38.11;36.32;47.28;;
78074;Laerm;67283;50.960;13.856;2023-04-03T02:15:17;38.21;36.48;39.72;;
78074;Laerm;67283;50.960;13.856;2023-04-03T02:17:45;38.40;36.10;57.11;;
78074;Laerm;67283;50.960;13.856;2023-04-03T02:20:14;38.40;36.10;57.11;;
78074;Laerm;67283;50.960;13.856;2023-04-03T02:22:42;51.10;36.47;68.74;;
78074;Laerm;67283;50.960;13.856;2023-04-03T02:25:12;38.25;36.18;39.98;;
78074;Laerm;67283;50.960;13.856;2023-04-03T02:27:42;38.24;36.27;40.20;;
78074;Laerm;67283;50.960;13.856;2023-04-03T02:30:11;38.34;36.41;44.17;;
78074;Laerm;67283;50.960;13.856;2023-04-03T02:32:39;56.80;36.15;70.95;;
78074;Laerm;67283;50.960;13.856;2023-04-03T02:35:08;54.59;36.37;71.62;;
78074;Laerm;67283;50.960;13.856;2023-04-03T02:37:36;38.22;35.88;39.81;;
78074;Laerm;67283;50.960;13.856;2023-04-03T02:40:05;57.49;36.72;78.63;;
78074;Laerm;67283;50.960;13.856;2023-04-03T02:42:36;55.74;36.63;73.10;;
78074;Laerm;67283;50.960;13.856;2023-04-03T02:45:04;38.24;36.46;39.88;;
78074;Laerm;67283;50.960;13.856;2023-04-03T02:47:33;59.25;36.90;76.92;;
78074;Laerm;67283;50.960;13.856;2023-04-03T02:50:01;52.08;36.64;70.72;;
78074;Laerm;67283;50.960;13.856;2023-04-03T02:52:29;52.88;36.19;71.71;;
78074;Laerm;67283;50.960;13.856;2023-04-03T02:54:57;58.24;36.23;77.46;;
78074;Laerm;67283;50.960;13.856;2023-04-03T02:57:28;53.39;36.22;69.95;;
78074;Laerm;67283;50.960;13.856;2023-04-03T02:59:59;60.00;36.72;75.88;;
78074;Laerm;67283;50.960;13.856;2023-04-03T03:02:28;57.83;37.03;72.29;;
78074;Laerm;67283;50.960;13.856;2023-04-03T03:04:56;60.49;37.06;76.64;;
78074;Laerm;67283;50.960;13.856;2023-04-03T03:07:24;49.99;36.48;65.85;;
78074;Laerm;67283;50.960;13.856;2023-04-03T03:09:52;38.20;36.41;39.84;;
78074;Laerm;67283;50.960;13.856;2023-04-03T03:12:20;59.62;36.53;72.78;;
78074;Laerm;67283;50.960;13.856;2023-04-03T03:14:49;56.16;36.75;71.00;;
78074;Laerm;67283;50.960;13.856;2023-04-03T03:17:20;56.16;36.75;71.00;;
78074;Laerm;67283;50.960;13.856;2023-04-03T03:19:48;60.09;37.05;72.89;;
78074;Laerm;67283;50.960;13.856;2023-04-03T03:22:16;59.31;37.46;72.25;;
78074;Laerm;67283;50.960;13.856;2023-04-03T03:24:45;60.58;36.63;73.85;;
78074;Laerm;67283;50.960;13.856;2023-04-03T03:27:13;56.17;36.15;71.17;;
78074;Laerm;67283;50.960;13.856;2023-04-03T03:29:41;62.42;39.18;78.79;;
78074;Laerm;67283;50.960;13.856;2023-04-03T03:32:09;63.88;39.58;78.62;;
78074;Laerm;67283;50.960;13.856;2023-04-03T03:34:40;61.14;37.11;74.91;;
78074;Laerm;67283;50.960;13.856;2023-04-03T03:37:08;61.14;37.11;74.91;;
78074;Laerm;67283;50.960;13.856;2023-04-03T03:39:36;60.53;37.11;74.28;;
78074;Laerm;67283;50.960;13.856;2023-04-03T03:42:04;61.40;37.18;79.61;;
78074;Laerm;67283;50.960;13.856;2023-04-03T03:44:32;65.86;39.34;78.99;;
78074;Laerm;67283;50.960;13.856;2023-04-03T03:47:00;65.55;42.36;79.91;;
78074;Laerm;67283;50.960;13.856;2023-04-03T03:49:31;62.87;39.06;77.78;;
78074;Laerm;67283;50.960;13.856;2023-04-03T03:52:01;63.83;41.05;75.38;;
78074;Laerm;67283;50.960;13.856;2023-04-03T03:54:29;64.05;43.29;75.86;;
78074;Laerm;67283;50.960;13.856;2023-04-03T03:56:57;61.63;41.34;75.00;;
78074;Laerm;67283;50.960;13.856;2023-04-03T03:59:26;61.64;41.30;73.36;;
78074;Laerm;67283;50.960;13.856;2023-04-03T04:01:54;59.34;40.34;70.12;;
78074;Laerm;67283;50.960;13.856;2023-04-03T04:04:22;63.76;40.26;75.72;;
78074;Laerm;67283;50.960;13.856;2023-04-03T04:06:50;62.11;42.88;73.89;;
78074;Laerm;67283;50.960;13.856;2023-04-03T04:09:20;60.58;39.20;71.80;;
78074;Laerm;67283;50.960;13.856;2023-04-03T04:11:48;60.54;39.54;74.75;;
78074;Laerm;67283;50.960;13.856;2023-04-03T04:14:17;60.54;39.54;74.75;;
78074;Laerm;67283;50.960;13.856;2023-04-03T04:16:45;63.24;38.36;79.11;;
78074;Laerm;67283;50.960;13.856;2023-04-03T04:19:13;62.32;41.41;72.02;;
78074;Laerm;67283;50.960;13.856;2023-04-03T04:21:41;60.57;38.51;74.04;;
78074;Laerm;67283;50.960;13.856;2023-04-03T04:24:10;64.23;44.37;76.67;;
78074;Laerm;67283;50.960;13.856;2023-04-03T04:26:41;61.45;38.81;71.39;;
78074;Laerm;67283;50.960;13.856;2023-04-03T04:29:10;60.50;39.08;72.45;;
78074;Laerm;67283;50.960;13.856;2023-04-03T04:31:38;62.62;38.57;77.84;;
78074;Laerm;67283;50.960;13.856;2023-04-03T04:34:06;63.01;43.92;74.82;;
78074;Laerm;67283;50.960;13.856;2023-04-03T04:36:34;63.01;43.92;74.82;;
78074;Laerm;67283;50.960;13.856;2023-04-03T04:39:02;62.08;38.07;75.88;;
78074;Laerm;67283;50.960;13.856;2023-04-03T04:41:30;62.55;38.57;73.50;;
78074;Laerm;67283;50.960;13.856;2023-04-03T04:44:02;62.12;39.96;78.50;;
78074;Laerm;67283;50.960;13.856;2023-04-03T04:46:30;61.69;40.93;73.20;;
78074;Laerm;67283;50.960;13.856;2023-04-03T04:48:58;65.98;46.22;77.95;;
78074;Laerm;67283;50.960;13.856;2023-04-03T04:51:26;61.09;38.54;73.62;;
78074;Laerm;67283;50.960;13.856;2023-04-03T04:53:54;59.40;37.15;73.39;;
78074;Laerm;67283;50.960;13.856;2023-04-03T04:56:22;63.18;40.71;84.40;;
78074;Laerm;67283;50.960;13.856;2023-04-03T04:58:50;59.96;37.92;72.80;;
78074;Laerm;67283;50.960;13.856;2023-04-03T05:01:21;59.28;38.08;73.77;;
78074;Laerm;67283;50.960;13.856;2023-04-03T05:03:49;63.09;38.35;75.92;;
78074;Laerm;67283;50.960;13.856;2023-04-03T05:06:17;63.22;40.32;82.94;;
78074;Laerm;67283;50.960;13.856;2023-04-03T05:08:45;62.25;37.93;73.42;;
78074;Laerm;67283;50.960;13.856;2023-04-03T05:11:13;57.67;38.99;70.64;;
78074;Laerm;67283;50.960;13.856;2023-04-03T05:13:41;61.78;37.83;74.27;;
78074;Laerm;67283;50.960;13.856;2023-04-03T05:16:09;61.78;37.83;74.27;;
78074;Laerm;67283;50.960;13.856;2023-04-03T05:18:40;62.61;37.74;78.22;;
78074;Laerm;67283;50.960;13.856;2023-04-03T05:21:08;65.71;41.29;78.54;;
78074;Laerm;67283;50.960;13.856;2023-04-03T05:23:36;62.22;38.32;82.25;;
78074;Laerm;67283;50.960;13.856;2023-04-03T05:26:04;57.08;38.08;71.18;;
78074;Laerm;67283;50.960;13.856;2023-04-03T05:28:32;65.39;47.15;73.85;;
78074;Laerm;67283;50.960;13.856;2023-04-03T05:31:01;64.11;38.50;73.96;;
78074;Laerm;67283;50.960;13.856;2023-04-03T05:33:29;64.27;37.73;78.84;;
78074;Laerm;67283;50.960;13.856;2023-04-03T05:36:01;61.54;39.36;73.26;;
78074;Laerm;67283;50.960;13.856;2023-04-03T05:38:29;61.22;38.97;73.26;;
78074;Laerm;67283;50.960;13.856;2023-04-03T05:40:57;61.25;38.73;73.51;;
78074;Laerm;67283;50.960;13.856;2023-04-03T05:43:25;64.31;41.33;81.49;;
78074;Laerm;67283;50.960;13.856;2023-04-03T05:45:54;55.89;38.66;70.51;;
78074;Laerm;67283;50.960;13.856;2023-04-03T05:48:22;61.51;38.20;73.53;;
78074;Laerm;67283;50.960;13.856;2023-04-03T05:50:50;61.37;37.78;74.56;;
78074;Laerm;67283;50.960;13.856;2023-04-03T05:53:21;62.02;38.36;72.62;;
78074;Laerm;67283;50.960;13.856;2023-04-03T05:55:50;57.64;37.65;69.59;;
78074;Laerm;67283;50.960;13.856;2023-04-03T05:58:18;62.88;39.31;74.63;;
78074;Laerm;67283;50.960;13.856;2023-04-03T06:00:47;60.46;37.37;75.93;;
78074;Laerm;67283;50.960;13.856;2023-04-03T06:03:15;59.71;37.15;72.92;;
78074;Laerm;67283;50.960;13.856;2023-04-03T06:05:43;62.01;37.18;76.30;;
78074;Laerm;67283;50.960;13.856;2023-04-03T06:08:11;59.21;37.53;70.46;;
78074;Laerm;67283;50.960;13.856;2023-04-03T06:10:42;59.20;38.59;70.78;;
78074;Laerm;67283;50.960;13.856;2023-04-03T06:13:10;59.05;36.91;72.75;;
78074;Laerm;67283;50.960;13.856;2023-04-03T06:15:38;61.93;38.48;74.16;;
78074;Laerm;67283;50.960;13.856;2023-04-03T06:18:07;64.04;40.05;82.17;;
78074;Laerm;67283;50.960;13.856;2023-04-03T06:20:35;64.04;40.05;82.17;;
78074;Laerm;67283;50.960;13.856;2023-04-03T06:23:03;60.98;37.61;77.78;;
78074;Laerm;67283;50.960;13.856;2023-04-03T06:25:31;59.64;37.89;72.11;;
78074;Laerm;67283;50.960;13.856;2023-04-03T06:28:02;59.50;38.75;71.57;;
78074;Laerm;67283;50.960;13.856;2023-04-03T06:30:30;62.73;38.19;78.56;;
78074;Laerm;67283;50.960;13.856;2023-04-03T06:32:59;57.61;38.07;71.96;;
78074;Laerm;67283;50.960;13.856;2023-04-03T06:35:27;59.97;37.74;73.35;;
78074;Laerm;67283;50.960;13.856;2023-04-03T06:37:55;59.32;37.91;74.23;;
78074;Laerm;67283;50.960;13.856;2023-04-03T06:40:24;54.86;36.98;71.04;;
78074;Laerm;67283;50.960;13.856;2023-04-03T06:42:52;57.50;37.14;72.82;;
78074;Laerm;67283;50.960;13.856;2023-04-03T06:45:23;61.91;37.51;73.00;;
78074;Laerm;67283;50.960;13.856;2023-04-03T06:47:52;53.34;36.94;69.92;;
78074;Laerm;67283;50.960;13.856;2023-04-03T06:50:20;61.58;37.45;79.92;;
78074;Laerm;67283;50.960;13.856;2023-04-03T06:52:49;60.58;37.40;72.84;;
78074;Laerm;67283;50.960;13.856;2023-04-03T06:55:17;61.81;36.65;74.40;;
78074;Laerm;67283;50.960;13.856;2023-04-03T06:57:45;57.38;37.28;70.54;;
78074;Laerm;67283;50.960;13.856;2023-04-03T07:00:14;60.33;37.20;71.18;;
78074;Laerm;67283;50.960;13.856;2023-04-03T07:02:45;64.80;38.06;75.87;;
78074;Laerm;67283;50.960;13.856;2023-04-03T07:05:13;60.31;37.89;74.03;;
78074;Laerm;67283;50.960;13.856;2023-04-03T07:07:41;61.33;37.94;75.26;;
78074;Laerm;67283;50.960;13.856;2023-04-03T07:10:09;55.80;37.20;71.37;;
78074;Laerm;67283;50.960;13.856;2023-04-03T07:12:37;62.50;37.33;74.42;;
78074;Laerm;67283;50.960;13.856;2023-04-03T07:15:06;60.70;40.97;71.06;;
78074;Laerm;67283;50.960;13.856;2023-04-03T07:17:35;64.59;39.73;79.34;;
78074;Laerm;67283;50.960;13.856;2023-04-03T07:20:06;61.96;37.52;75.78;;
78074;Laerm;67283;50.960;13.856;2023-04-03T07:22:35;61.92;38.50;72.90;;
78074;Laerm;67283;50.960;13.856;2023-04-03T07:25:04;60.73;37.21;77.27;;
78074;Laerm;67283;50.960;13.856;2023-04-03T07:27:32;57.93;37.53;73.71;;
78074;Laerm;67283;50.960;13.856;2023-04-03T07:30:00;56.89;37.38;76.10;;
78074;Laerm;67283;50.960;13.856;2023-04-03T07:32:28;60.36;38.42;74.36;;
78074;Laerm;67283;50.960;13.856;2023-04-03T07:34:57;59.92;37.28;79.63;;
78074;Laerm;67283;50.960;13.856;2023-04-03T07:37:27;61.11;36.73;78.71;;
78074;Laerm;67283;50.960;13.856;2023-04-03T07:39:55;64.80;38.12;79.07;;
78074;Laerm;67283;50.960;13.856;2023-04-03T07:42:24;63.41;42.56;82.86;;
78074;Laerm;67283;50.960;13.856;2023-04-03T07:44:52;62.14;40.04;87.03;;
78074;Laerm;67283;50.960;13.856;2023-04-03T07:47:21;58.14;37.47;72.12;;
78074;Laerm;67283;50.960;13.856;2023-04-03T07:49:49;59.71;37.58;78.52;;
78074;Laerm;67283;50.960;13.856;2023-04-03T07:52:17;59.71;37.58;78.52;;
78074;Laerm;67283;50.960;13.856;2023-04-03T07:54:48;63.81;37.68;80.06;;
78074;Laerm;67283;50.960;13.856;2023-04-03T07:57:16;60.71;39.11;72.03;;
78074;Laerm;67283;50.960;13.856;2023-04-03T07:59:44;62.67;40.07;83.12;;
78074;Laerm;67283;50.960;13.856;2023-04-03T08:02:12;62.53;37.91;77.56;;
78074;Laerm;67283;50.960;13.856;2023-04-03T08:04:41;59.74;37.00;81.14;;
78074;Laerm;67283;50.960;13.856;2023-04-03T08:07:09;59.19;37.48;71.98;;
78074;Laerm;67283;50.960;13.856;2023-04-03T08:09:37;59.63;37.27;73.18;;
78074;Laerm;67283;50.960;13.856;2023-04-03T08:12:07;57.19;38.20;70.93;;
78074;Laerm;67283;50.960;13.856;2023-04-03T08:14:36;57.39;36.87;71.84;;
78074;Laerm;67283;50.960;13.856;2023-04-03T08:17:04;62.24;38.40;74.53;;
78074;Laerm;67283;50.960;13.856;2023-04-03T08:19:36;60.70;37.42;74.81;;
78074;Laerm;67283;50.960;13.856;2023-04-03T08:22:05;55.76;37.40;68.95;;
78074;Laerm;67283;50.960;13.856;2023-04-03T08:24:33;57.74;37.30;71.87;;
78074;Laerm;67283;50.960;13.856;2023-04-03T08:27:01;56.38;37.09;70.38;;
78074;Laerm;67283;50.960;13.856;2023-04-03T08:29:32;61.16;37.58;73.05;;
78074;Laerm;67283;50.960;13.856;2023-04-03T08:32:02;57.90;36.96;73.97;;
78074;Laerm;67283;50.960;13.856;2023-04-03T08:34:31;54.49;36.72;68.69;;
78074;Laerm;67283;50.960;13.856;2023-04-03T08:37:02;61.59;36.28;79.87;;
78074;Laerm;67283;50.960;13.856;2023-04-03T08:39:30;61.93;41.39;81.02;;
78074;Laerm;67283;50.960;13.856;2023-04-03T08:41:59;59.62;36.44;72.69;;
78074;Laerm;67283;50.960;13.856;2023-04-03T08:44:36;60.02;37.14;71.10;;
78074;Laerm;67283;50.960;13.856;2023-04-03T08:47:10;55.52;36.93;70.68;;
78074;Laerm;67283;50.960;13.856;2023-04-03T08:49:40;61.18;39.11;75.08;;
78074;Laerm;67283;50.960;13.856;2023-04-03T08:52:13;57.57;37.26;72.92;;
78074;Laerm;67283;50.960;13.856;2023-04-03T08:54:48;61.74;36.65;78.95;;
78074;Laerm;67283;50.960;13.856;2023-04-03T08:57:18;60.70;38.51;72.98;;
78074;Laerm;67283;50.960;13.856;2023-04-03T08:59:50;60.70;38.51;72.98;;
78074;Laerm;67283;50.960;13.856;2023-04-03T09:02:23;59.89;37.66;76.18;;
78074;Laerm;67283;50.960;13.856;2023-04-03T09:04:53;63.01;40.81;81.48;;
78074;Laerm;67283;50.960;13.856;2023-04-03T09:07:22;62.36;37.85;84.30;;
78074;Laerm;67283;50.960;13.856;2023-04-03T09:09:54;63.96;38.48;80.79;;
78074;Laerm;67283;50.960;13.856;2023-04-03T09:12:25;63.96;38.48;80.79;;
78074;Laerm;67283;50.960;13.856;2023-04-03T09:15:01;59.25;36.96;72.76;;
78074;Laerm;67283;50.960;13.856;2023-04-03T09:17:36;59.11;37.12;70.37;;
78074;Laerm;67283;50.960;13.856;2023-04-03T09:20:15;59.11;37.12;70.37;;
78074;Laerm;67283;50.960;13.856;2023-04-03T09:22:45;59.06;36.89;72.72;;
78074;Laerm;67283;50.960;13.856;2023-04-03T09:25:15;64.62;44.12;79.39;;
78074;Laerm;67283;50.960;13.856;2023-04-03T09:27:44;53.57;37.00;67.84;;
78074;Laerm;67283;50.960;13.856;2023-04-03T09:30:16;59.05;37.96;74.38;;
78074;Laerm;67283;50.960;13.856;2023-04-03T09:32:45;62.47;38.04;79.07;;
78074;Laerm;67283;50.960;13.856;2023-04-03T09:35:19;60.03;39.13;71.62;;
78074;Laerm;67283;50.960;13.856;2023-04-03T09:37:48;40.80;36.74;62.47;;
78074;Laerm;67283;50.960;13.856;2023-04-03T09:40:30;56.80;36.78;72.58;;
78074;Laerm;67283;50.960;13.856;2023-04-03T09:43:00;59.30;36.32;75.36;;
78074;Laerm;67283;50.960;13.856;2023-04-03T09:45:31;56.67;36.65;69.90;;
78074;Laerm;67283;50.960;13.856;2023-04-03T09:48:05;61.51;36.46;73.88;;
78074;Laerm;67283;50.960;13.856;2023-04-03T09:50:34;60.31;36.87;70.38;;
78074;Laerm;67283;50.960;13.856;2023-04-03T09:53:06;53.93;36.20;70.75;;
78074;Laerm;67283;50.960;13.856;2023-04-03T09:55:41;60.19;37.14;72.57;;
78074;Laerm;67283;50.960;13.856;2023-04-03T09:58:24;61.20;37.23;73.15;;
78074;Laerm;67283;50.960;13.856;2023-04-03T10:00:59;57.17;36.72;70.98;;
78074;Laerm;67283;50.960;13.856;2023-04-03T10:03:28;58.40;36.31;73.30;;
78074;Laerm;67283;50.960;13.856;2023-04-03T10:05:57;59.79;36.91;73.28;;
78074;Laerm;67283;50.960;13.856;2023-04-03T10:08:27;60.42;36.64;78.07;;
78074;Laerm;67283;50.960;13.856;2023-04-03T10:11:08;62.28;37.45;79.12;;
78074;Laerm;67283;50.960;13.856;2023-04-03T10:13:49;58.58;36.43;71.23;;
78074;Laerm;67283;50.960;13.856;2023-04-03T10:16:20;64.36;36.79;82.73;;
78074;Laerm;67283;50.960;13.856;2023-04-03T10:18:54;59.39;36.64;73.43;;
78074;Laerm;67283;50.960;13.856;2023-04-03T10:21:29;64.79;36.99;78.91;;
78074;Laerm;67283;50.960;13.856;2023-04-03T10:24:03;60.72;37.54;82.52;;
78074;Laerm;67283;50.960;13.856;2023-04-03T10:26:37;60.72;37.54;82.52;;
78074;Laerm;67283;50.960;13.856;2023-04-03T10:29:08;60.12;37.37;71.25;;
78074;Laerm;67283;50.960;13.856;2023-04-03T10:31:43;57.22;39.02;69.79;;
78074;Laerm;67283;50.960;13.856;2023-04-03T10:34:15;59.01;37.89;71.45;;
78074;Laerm;67283;50.960;13.856;2023-04-03T10:36:50;62.19;37.05;80.89;;
78074;Laerm;67283;50.960;13.856;2023-04-03T10:39:23;62.19;36.09;77.73;;
78074;Laerm;67283;50.960;13.856;2023-04-03T10:41:57;59.28;36.39;74.27;;
78074;Laerm;67283;50.960;13.856;2023-04-03T10:44:30;59.28;36.39;74.27;;
78074;Laerm;67283;50.960;13.856;2023-04-03T10:47:04;59.28;36.39;74.27;;
78074;Laerm;67283;50.960;13.856;2023-04-03T10:49:41;60.47;36.77;74.19;;
78074;Laerm;67283;50.960;13.856;2023-04-03T10:52:17;62.14;36.57;78.58;;
78074;Laerm;67283;50.960;13.856;2023-04-03T10:54:49;59.20;36.80;71.72;;
78074;Laerm;67283;50.960;13.856;2023-04-03T10:57:21;61.58;37.49;76.68;;
78074;Laerm;67283;50.960;13.856;2023-04-03T10:59:51;61.58;37.49;76.68;;
78074;Laerm;67283;50.960;13.856;2023-04-03T11:02:25;60.27;36.87;73.34;;
78074;Laerm;67283;50.960;13.856;2023-04-03T11:04:56;60.27;36.87;73.34;;
78074;Laerm;67283;50.960;13.856;2023-04-03T11:07:28;61.92;36.89;76.23;;
78074;Laerm;67283;50.960;13.856;2023-04-03T11:09:59;59.84;38.39;78.22;;
78074;Laerm;67283;50.960;13.856;2023-04-03T11:12:36;55.65;36.72;79.94;;
78074;Laerm;67283;50.960;13.856;2023-04-03T11:15:11;59.58;36.35;71.08;;
78074;Laerm;67283;50.960;13.856;2023-04-03T11:17:43;59.25;36.46;75.14;;
78074;Laerm;67283;50.960;13.856;2023-04-03T11:20:16;59.81;36.99;74.00;;
78074;Laerm;67283;50.960;13.856;2023-04-03T11:22:47;61.56;36.61;73.18;;
78074;Laerm;67283;50.960;13.856;2023-04-03T11:25:18;59.12;36.77;75.01;;
78074;Laerm;67283;50.960;13.856;2023-04-03T11:27:48;55.01;36.26;69.91;;
78074;Laerm;67283;50.960;13.856;2023-04-03T11:30:19;61.54;38.94;71.92;;
78074;Laerm;67283;50.960;13.856;2023-04-03T11:32:55;61.45;36.86;78.25;;
78074;Laerm;67283;50.960;13.856;2023-04-03T11:35:27;57.91;36.61;70.89;;
78074;Laerm;67283;50.960;13.856;2023-04-03T11:37:55;59.26;37.85;72.63;;
78074;Laerm;67283;50.960;13.856;2023-04-03T11:40:25;58.21;36.79;70.80;;
78074;Laerm;67283;50.960;13.856;2023-04-03T11:42:55;59.15;38.46;73.71;;
78074;Laerm;67283;50.960;13.856;2023-04-03T11:45:34;59.96;36.45;73.35;;
78074;Laerm;67283;50.960;13.856;2023-04-03T11:48:06;61.36;36.35;82.85;;
78074;Laerm;67283;50.960;13.856;2023-04-03T11:50:41;62.03;36.10;76.81;;
78074;Laerm;67283;50.960;13.856;2023-04-03T11:53:27;52.78;36.30;69.04;;
78074;Laerm;67283;50.960;13.856;2023-04-03T11:55:56;58.76;40.22;70.79;;
78074;Laerm;67283;50.960;13.856;2023-04-03T11:58:25;60.85;38.88;73.45;;
78074;Laerm;67283;50.960;13.856;2023-04-03T12:00:59;59.28;37.67;71.62;;
78074;Laerm;67283;50.960;13.856;2023-04-03T12:03:34;62.44;38.29;81.53;;
78074;Laerm;67283;50.960;13.856;2023-04-03T12:09:27;55.06;36.57;71.14;;
78074;Laerm;67283;50.960;13.856;2023-04-03T12:11:55;57.31;36.38;73.17;;
78074;Laerm;67283;50.960;13.856;2023-04-03T12:14:24;57.32;36.47;72.44;;
78074;Laerm;67283;50.960;13.856;2023-04-03T12:16:53;60.93;37.28;76.26;;
78074;Laerm;67283;50.960;13.856;2023-04-03T12:19:32;61.25;39.50;77.50;;
78074;Laerm;67283;50.960;13.856;2023-04-03T12:22:06;59.98;36.69;79.85;;
78074;Laerm;67283;50.960;13.856;2023-04-03T12:24:35;58.21;35.85;80.13;;
78074;Laerm;67283;50.960;13.856;2023-04-03T12:29:59;61.61;37.82;81.62;;
78074;Laerm;67283;50.960;13.856;2023-04-03T12:32:35;60.13;37.33;72.70;;
78074;Laerm;67283;50.960;13.856;2023-04-03T12:35:12;63.29;40.52;74.59;;
78074;Laerm;67283;50.960;13.856;2023-04-03T12:37:51;62.79;39.19;82.02;;
78074;Laerm;67283;50.960;13.856;2023-04-03T12:40:24;61.85;35.97;77.11;;
78074;Laerm;67283;50.960;13.856;2023-04-03T12:43:15;61.15;36.70;78.04;;
78074;Laerm;67283;50.960;13.856;2023-04-03T12:45:49;55.63;36.40;71.50;;
78074;Laerm;67283;50.960;13.856;2023-04-03T12:48:22;62.46;40.19;71.91;;
78074;Laerm;67283;50.960;13.856;2023-04-03T12:50:55;62.58;39.31;71.16;;
78074;Laerm;67283;50.960;13.856;2023-04-03T12:53:24;62.67;38.31;76.20;;
78074;Laerm;67283;50.960;13.856;2023-04-03T12:55:55;61.39;36.98;72.52;;
78074;Laerm;67283;50.960;13.856;2023-04-03T12:58:24;63.63;41.57;73.78;;
78074;Laerm;67283;50.960;13.856;2023-04-03T13:00:59;58.29;36.51;71.46;;
78074;Laerm;67283;50.960;13.856;2023-04-03T13:03:28;57.11;38.90;69.27;;
78074;Laerm;67283;50.960;13.856;2023-04-03T13:06:00;60.98;37.46;79.00;;
78074;Laerm;67283;50.960;13.856;2023-04-03T13:08:29;61.29;40.31;76.01;;
78074;Laerm;67283;50.960;13.856;2023-04-03T13:10:59;62.70;39.66;75.98;;
78074;Laerm;67283;50.960;13.856;2023-04-03T13:13:29;64.87;47.56;74.58;;
78074;Laerm;67283;50.960;13.856;2023-04-03T13:15:57;62.28;38.86;72.14;;
78074;Laerm;67283;50.960;13.856;2023-04-03T13:18:29;59.61;36.29;71.18;;
78074;Laerm;67283;50.960;13.856;2023-04-03T13:21:03;60.50;37.80;71.02;;
78074;Laerm;67283;50.960;13.856;2023-04-03T13:23:33;64.70;41.31;76.36;;
78074;Laerm;67283;50.960;13.856;2023-04-03T13:26:03;62.35;38.32;76.47;;
78074;Laerm;67283;50.960;13.856;2023-04-03T13:28:31;62.35;38.32;76.47;;
78074;Laerm;67283;50.960;13.856;2023-04-03T13:31:05;62.65;38.28;80.61;;
78074;Laerm;67283;50.960;13.856;2023-04-03T13:33:35;63.06;38.51;76.17;;
78074;Laerm;67283;50.960;13.856;2023-04-03T13:36:11;61.83;38.62;76.08;;
78074;Laerm;67283;50.960;13.856;2023-04-03T13:38:45;63.53;40.14;79.34;;
78074;Laerm;67283;50.960;13.856;2023-04-03T13:41:23;59.05;36.81;71.72;;
78074;Laerm;67283;50.960;13.856;2023-04-03T13:43:51;59.39;37.69;70.17;;
78074;Laerm;67283;50.960;13.856;2023-04-03T13:46:24;60.01;40.21;71.41;;
78074;Laerm;67283;50.960;13.856;2023-04-03T13:48:53;60.66;37.39;76.23;;
78074;Laerm;67283;50.960;13.856;2023-04-03T13:51:25;61.31;38.17;73.66;;
78074;Laerm;67283;50.960;13.856;2023-04-03T13:53:55;62.96;38.14;77.25;;
78074;Laerm;67283;50.960;13.856;2023-04-03T13:56:25;59.41;36.89;72.83;;